Racecast

Leonard Peterson Jr

Legion of Zoom Track Club (VA) · - · Compare head to head

Athlete rating
Races 36
Seasons 1 2026
Speed rating — all races

Track & Field

TF speed rating

2026 TF

Legion of Zoom Track Club (VA) · Grade -

Date Meet Event Result Place Rating Difficulty PR/SR Flags
2026-06-20 Legacy Juneteenth Track Showcase softball 18.51m -0.027
2026-06-20 Legacy Juneteenth Track Showcase 100m 18.29 7th · 3rd on team -0.027
2026-06-20 Legacy Juneteenth Track Showcase 100m 18.8 11th · 5th on team -0.027
2026-06-20 Legacy Juneteenth Track Showcase 50m 9.5 6th · 2nd on team -0.027
2026-06-13 AAU Virginia District Qualifier - South softball 44' 4" -0.033
2026-06-13 AAU Virginia District Qualifier - South 50m 9.45 5th · 2nd on team -0.033
2026-06-13 AAU Virginia District Qualifier - South 100m 17.82 6th · 2nd on team -0.033
2026-05-30 Va Beach Flames Invite softball 47' 3" -0.023
2026-05-30 Va Beach Flames Invite softball 47' 3" -0.023
2026-05-30 Va Beach Flames Invite 100m 17.72 10th · 3rd on team -0.023 ★PR SR
2026-05-30 Va Beach Flames Invite 100m 18.4 16th · 4th on team -0.023
2026-05-30 Va Beach Flames Invite 200m 47.25 13th · 2nd on team -0.023
2026-05-24 HR Hurricanes CAT 5 Invite 50m 9.42 5th · 2nd on team -0.035 ★PR SR
2026-05-24 HR Hurricanes CAT 5 Invite 100m 20.39 21st · 3rd on team -0.035
2026-05-09 VA "Legends" T & F Youth Invite softball 17.60m -0.033
2026-05-09 VA "Legends" T & F Youth Invite 200m 1:00.23 10th · 2nd on team -0.033
2026-05-09 VA "Legends" T & F Youth Invite 100m 18.77 6th · 2nd on team -0.033
2026-05-03 Queen Harrison Track Classic - -Youth Section 100m 20.83 11th · 2nd on team -0.033
2026-05-03 Queen Harrison Track Classic - -Youth Section 50m 9.99 8th · 2nd on team -0.033 PR SR
2026-04-26 Virginia Pride Spring Kick-Off 100m 21.58 7th · 2nd on team -0.029
2026-04-26 Virginia Pride Spring Kick-Off 200m 42.69 7th · 2nd on team -0.029
2026-03-06 AAU Indoor National Championship 60m 11.53 23rd · 1st on team -0.036 ★PR SR
2026-03-06 AAU Indoor National Championship 200m 40.61 20th · 1st on team -0.036 ★PR SR
2026-02-22 3rd Annual HRH Winter Storm Classic 55m 10.45 10th · 2nd on team -0.024
2026-02-22 3rd Annual HRH Winter Storm Classic 200m 41.48 5th · 1st on team -0.024 PR SR
2026-02-22 3rd Annual HRH Winter Storm Classic 55m 11.23 17th · 4th on team -0.024
2026-01-17 BWSP Queens and Kings - Meet 2 100m 18.88 2nd · 1st on team -0.024
2026-01-17 BWSP Queens and Kings - Meet 2 55m 10.46 4th · 2nd on team -0.024
2026-01-17 BWSP Queens and Kings - Meet 2 55m 10.84 6th · 4th on team -0.024
2026-01-03 BWSP Queens and Kings - Meet 1 100m 18.72 1st · 1st on team -0.024 PR SR
2026-01-03 BWSP Queens and Kings - Meet 1 55m 10.51 6th · 2nd on team -0.024 PR SR
2026-01-03 BWSP Queens and Kings - Meet 1 55m 10.4 3rd · 1st on team -0.024 ★PR SR
2025-12-20 2025 Howard White Holiday Track Classic 55m 11.29 7th · 4th on team -0.024 PR SR
2025-12-20 2025 Howard White Holiday Track Classic 200m 44.42 4th · 2nd on team -0.024 PR SR
2025-12-20 2025 Howard White Holiday Track Classic 100m 20.21 4th · 2nd on team -0.024 PR SR
2025-12-20 2025 Howard White Holiday Track Classic 55m 10.89 5th · 3rd on team -0.024 PR SR